createdAt,value
2019-02-24T00:01:36.829Z,20.20
2019-02-24T00:04:42.462Z,19.43
2019-02-24T00:07:47.665Z,25.00
2019-02-24T00:10:52.866Z,22.77
2019-02-24T00:13:58.015Z,21.40
2019-02-24T00:17:03.407Z,24.43
2019-02-24T00:20:08.575Z,21.23
2019-02-24T00:23:13.745Z,24.17
2019-02-24T00:26:19.023Z,20.53
2019-02-24T00:29:24.288Z,18.03
2019-02-24T00:32:29.555Z,23.33
2019-02-24T00:35:34.757Z,23.27
2019-02-24T00:38:39.967Z,19.07
2019-02-24T00:41:45.374Z,19.27
2019-02-24T00:44:50.553Z,18.83
2019-02-24T00:47:55.790Z,19.73
2019-02-24T00:51:02.143Z,15.33
2019-02-24T00:54:07.387Z,17.50
2019-02-24T00:57:12.711Z,16.47
2019-02-24T01:00:17.928Z,19.93
2019-02-24T01:03:23.140Z,15.20
2019-02-24T01:06:28.341Z,16.17
2019-02-24T01:09:33.510Z,14.77
2019-02-24T01:12:38.565Z,14.20
2019-02-24T01:15:43.818Z,15.93
2019-02-24T01:18:49.031Z,14.90
2019-02-24T01:21:54.178Z,15.23
2019-02-24T01:24:59.331Z,18.40
2019-02-24T01:28:04.481Z,16.93
2019-02-24T01:31:09.613Z,11.97
2019-02-24T01:34:14.761Z,14.40
2019-02-24T01:37:19.937Z,14.83
2019-02-24T01:40:25.270Z,13.63
2019-02-24T01:43:31.363Z,14.23
2019-02-24T01:46:36.515Z,14.43
2019-02-24T01:49:41.608Z,12.50
2019-02-24T01:52:46.726Z,15.40
2019-02-24T01:55:51.879Z,13.27
2019-02-24T01:58:57.121Z,18.03
2019-02-24T02:02:02.232Z,13.93
2019-02-24T02:05:07.550Z,16.13
2019-02-24T02:08:12.709Z,14.93
2019-02-24T02:11:18.364Z,12.67
2019-02-24T02:14:23.550Z,14.07
2019-02-24T02:17:28.887Z,14.37
2019-02-24T02:20:34.049Z,12.33
2019-02-24T02:23:39.159Z,13.67
2019-02-24T02:26:44.368Z,13.77
2019-02-24T02:29:49.556Z,12.67
2019-02-24T02:32:54.758Z,12.07
2019-02-24T02:35:59.986Z,12.80
2019-02-24T02:39:05.787Z,13.43
2019-02-24T02:42:11.613Z,14.37
2019-02-24T02:45:16.830Z,12.57
2019-02-24T02:48:22.025Z,12.73
2019-02-24T02:51:27.252Z,10.87
2019-02-24T02:54:32.421Z,14.67
2019-02-24T02:57:37.506Z,14.40
2019-02-24T03:00:42.663Z,12.07
2019-02-24T03:03:47.878Z,15.17
2019-02-24T03:07:01.634Z,12.33
2019-02-24T03:10:06.835Z,12.10
2019-02-24T03:13:11.976Z,11.70
2019-02-24T03:16:23.035Z,11.70
2019-02-24T03:19:29.244Z,12.10
2019-02-24T03:22:34.375Z,13.30
2019-02-24T03:25:39.462Z,10.20
2019-02-24T03:28:44.792Z,10.90
2019-02-24T03:31:49.981Z,14.60
2019-02-24T03:34:55.172Z,12.30
2019-02-24T03:38:00.332Z,13.03
2019-02-24T03:41:05.566Z,13.07
2019-02-24T03:44:10.747Z,13.07
2019-02-24T03:47:15.992Z,14.77
2019-02-24T03:50:21.086Z,13.00
2019-02-24T03:53:26.426Z,12.13
2019-02-24T03:56:31.594Z,13.50
2019-02-24T03:59:36.698Z,13.27
2019-02-24T04:02:41.892Z,12.37
2019-02-24T04:05:47.035Z,9.63
2019-02-24T04:08:52.194Z,12.00
2019-02-24T04:11:57.362Z,15.57
2019-02-24T04:15:02.474Z,12.13
2019-02-24T04:18:07.695Z,11.77
2019-02-24T04:21:12.866Z,14.90
2019-02-24T04:24:17.995Z,13.63
2019-02-24T04:27:23.140Z,10.57
2019-02-24T04:30:29.352Z,9.73
2019-02-24T04:33:34.565Z,15.53
2019-02-24T04:36:39.748Z,11.63
2019-02-24T04:39:44.912Z,9.53
2019-02-24T04:42:50.162Z,11.47
2019-02-24T04:45:55.232Z,10.67
2019-02-24T04:49:00.447Z,10.60
2019-02-24T04:52:05.576Z,10.87
2019-02-24T04:55:10.720Z,10.33
2019-02-24T04:58:15.896Z,9.07
2019-02-24T05:01:21.115Z,8.00
2019-02-24T05:04:26.317Z,11.40
2019-02-24T05:07:31.453Z,12.40
2019-02-24T05:10:36.674Z,11.90
2019-02-24T05:13:41.778Z,12.23
2019-02-24T05:16:46.953Z,9.40
2019-02-24T05:19:52.015Z,9.93
2019-02-24T05:22:57.281Z,10.07
2019-02-24T05:26:02.555Z,10.47
2019-02-24T05:29:07.661Z,9.27
2019-02-24T05:32:12.795Z,11.23
2019-02-24T05:35:18.156Z,9.03
2019-02-24T05:38:23.426Z,9.30
2019-02-24T05:41:28.665Z,12.87
2019-02-24T05:44:33.796Z,9.03
2019-02-24T05:47:38.932Z,7.80
2019-02-24T05:50:44.072Z,10.73
2019-02-24T05:53:49.285Z,9.67
2019-02-24T05:56:54.362Z,10.13
2019-02-24T05:59:59.545Z,13.10
2019-02-24T06:03:04.667Z,11.07
2019-02-24T06:06:09.866Z,10.03
2019-02-24T06:09:15.023Z,11.77
2019-02-24T06:12:20.299Z,9.87
2019-02-24T06:15:25.626Z,11.63
2019-02-24T06:18:30.794Z,12.00
2019-02-24T06:21:36.026Z,13.53
2019-02-24T06:24:41.253Z,10.77
2019-02-24T06:27:46.342Z,8.93
2019-02-24T06:30:51.495Z,9.70
2019-02-24T06:33:56.755Z,12.50
2019-02-24T06:37:01.905Z,13.23
2019-02-24T06:40:08.562Z,11.77
2019-02-24T06:43:13.778Z,10.90
2019-02-24T06:46:18.958Z,13.90
2019-02-24T06:49:24.128Z,13.07
2019-02-24T06:52:30.318Z,12.33
2019-02-24T06:55:35.498Z,12.37
2019-02-24T06:58:40.620Z,11.30
2019-02-24T07:01:45.762Z,14.70
2019-02-24T07:04:51.030Z,14.17
2019-02-24T07:07:56.284Z,14.53
2019-02-24T07:11:01.519Z,12.67
2019-02-24T07:14:06.705Z,15.57
2019-02-24T07:17:11.847Z,12.47
2019-02-24T07:20:17.060Z,18.00
2019-02-24T07:23:22.214Z,23.63
2019-02-24T07:26:27.431Z,12.33
2019-02-24T07:29:32.546Z,11.07
2019-02-24T07:32:37.770Z,11.70
2019-02-24T07:35:42.895Z,11.60
2019-02-24T07:38:48.191Z,11.70
2019-02-24T07:41:53.319Z,12.87
2019-02-24T07:44:58.495Z,14.00
2019-02-24T07:48:03.604Z,10.93
2019-02-24T07:51:08.837Z,10.10
2019-02-24T07:54:13.941Z,13.10
2019-02-24T07:57:19.090Z,12.33
2019-02-24T08:00:31.956Z,10.67
2019-02-24T08:03:31.099Z,12.63
2019-02-24T08:06:36.259Z,11.87
2019-02-24T08:09:41.506Z,14.33
2019-02-24T08:12:46.663Z,13.47
2019-02-24T08:15:51.897Z,13.63
2019-02-24T08:18:57.100Z,13.53
2019-02-24T08:22:03.174Z,12.57
2019-02-24T08:25:09.374Z,14.47
2019-02-24T08:28:14.561Z,11.20
2019-02-24T08:31:19.725Z,10.83
2019-02-24T08:34:24.869Z,11.57
2019-02-24T08:37:30.019Z,10.20
2019-02-24T08:40:35.209Z,7.27
2019-02-24T08:43:40.446Z,7.90
2019-02-24T08:46:45.773Z,9.57
2019-02-24T08:49:50.851Z,8.00
2019-02-24T08:52:57.106Z,8.40
2019-02-24T08:56:02.440Z,8.80
2019-02-24T08:59:07.688Z,12.23
2019-02-24T09:02:12.835Z,8.47
2019-02-24T09:05:18.042Z,8.60
2019-02-24T09:08:23.157Z,8.03
2019-02-24T09:11:29.253Z,9.93
2019-02-24T09:14:34.386Z,9.17
2019-02-24T09:17:39.503Z,7.70
2019-02-24T09:20:44.725Z,9.53
2019-02-24T09:23:50.105Z,9.80
2019-02-24T09:26:55.231Z,8.63
2019-02-24T09:30:00.398Z,9.90
2019-02-24T09:33:05.489Z,8.10
2019-02-24T09:36:10.580Z,10.63
2019-02-24T09:39:18.486Z,8.07
2019-02-24T09:42:23.607Z,9.13
2019-02-24T09:45:28.760Z,10.50
2019-02-24T09:48:34.032Z,10.13
2019-02-24T09:51:39.202Z,7.73
2019-02-24T09:54:44.430Z,9.83
2019-02-24T09:57:50.571Z,6.30
2019-02-24T10:00:55.845Z,7.57
2019-02-24T10:04:00.935Z,10.27
2019-02-24T10:07:06.062Z,9.23
2019-02-24T10:10:11.465Z,7.80
2019-02-24T10:13:16.643Z,8.97
2019-02-24T10:16:21.773Z,6.87
2019-02-24T10:19:26.919Z,7.73
2019-02-24T10:22:32.016Z,7.57
2019-02-24T10:25:37.213Z,7.47
2019-02-24T10:28:42.479Z,7.00
2019-02-24T10:31:47.678Z,6.53
2019-02-24T10:34:52.901Z,7.50
2019-02-24T10:37:58.249Z,6.10
2019-02-24T10:41:03.436Z,7.17
2019-02-24T10:44:09.693Z,10.13
2019-02-24T10:47:15.038Z,7.00
2019-02-24T10:50:21.484Z,8.47
2019-02-24T10:53:28.157Z,8.90
2019-02-24T10:56:33.919Z,7.50
2019-02-24T10:59:39.070Z,9.83
2019-02-24T11:02:44.207Z,7.20
2019-02-24T11:05:49.448Z,6.67
2019-02-24T11:08:54.633Z,6.13
2019-02-24T11:11:59.733Z,6.00
2019-02-24T11:15:05.103Z,6.63
2019-02-24T11:18:10.712Z,8.60
2019-02-24T11:21:16.077Z,9.67
2019-02-24T11:24:21.204Z,7.37
2019-02-24T11:27:26.341Z,5.73
2019-02-24T11:30:31.501Z,4.93
2019-02-24T11:33:36.869Z,6.80
2019-02-24T11:36:42.004Z,6.60
2019-02-24T11:39:47.213Z,7.10
2019-02-24T11:42:52.430Z,5.97
2019-02-24T11:45:57.739Z,5.40
2019-02-24T11:49:02.906Z,6.27
2019-02-24T11:52:08.269Z,6.17
2019-02-24T11:55:13.703Z,6.53
2019-02-24T11:58:18.870Z,5.77
2019-02-24T12:01:24.047Z,6.33
2019-02-24T12:04:29.197Z,8.90
2019-02-24T12:07:34.487Z,7.33
2019-02-24T12:10:40.082Z,4.93
2019-02-24T12:13:45.152Z,6.83
2019-02-24T12:16:50.355Z,5.60
2019-02-24T12:19:55.542Z,5.20
2019-02-24T12:23:00.785Z,4.80
2019-02-24T12:26:05.971Z,4.43
2019-02-24T12:29:11.407Z,5.40
2019-02-24T12:32:16.575Z,4.53
2019-02-24T12:35:21.716Z,6.47
2019-02-24T12:38:26.910Z,5.50
2019-02-24T12:41:32.051Z,5.73
2019-02-24T12:44:37.232Z,7.67
2019-02-24T12:47:42.320Z,8.13
2019-02-24T12:50:47.500Z,6.37
2019-02-24T12:53:53.796Z,4.87
2019-02-24T12:56:58.955Z,6.57
2019-02-24T13:00:04.308Z,4.47
2019-02-24T13:03:09.653Z,6.57
2019-02-24T13:06:14.834Z,6.53
2019-02-24T13:09:23.987Z,7.07
2019-02-24T13:12:29.225Z,5.60
2019-02-24T13:15:34.371Z,7.00
2019-02-24T13:18:39.644Z,4.50
2019-02-24T13:21:46.430Z,6.03
2019-02-24T13:24:51.807Z,4.80
2019-02-24T13:27:56.959Z,4.33
2019-02-24T13:31:02.346Z,6.90
2019-02-24T13:34:07.600Z,5.30
2019-02-24T13:37:12.947Z,4.30
2019-02-24T13:40:18.103Z,6.87
2019-02-24T13:43:23.268Z,6.03
2019-02-24T13:46:28.564Z,5.17
2019-02-24T13:49:33.892Z,4.63
2019-02-24T13:52:39.036Z,4.97
2019-02-24T13:55:44.212Z,4.97
2019-02-24T13:58:49.352Z,4.90
2019-02-24T14:01:54.521Z,4.70
2019-02-24T14:04:59.666Z,4.50
2019-02-24T14:08:04.871Z,6.83
2019-02-24T14:11:10.036Z,3.57
2019-02-24T14:14:15.262Z,4.60
2019-02-24T14:17:20.416Z,3.83
2019-02-24T14:20:25.753Z,5.27
2019-02-24T14:23:30.961Z,3.57
2019-02-24T14:26:36.133Z,4.33
2019-02-24T14:29:41.285Z,3.67
2019-02-24T14:32:46.403Z,3.40
2019-02-24T14:35:51.708Z,3.50
2019-02-24T14:38:56.891Z,3.20
2019-02-24T14:42:01.983Z,3.43
2019-02-24T14:45:11.158Z,4.03
2019-02-24T14:48:17.513Z,5.17
2019-02-24T14:51:22.642Z,4.10
2019-02-24T14:54:27.697Z,4.73
2019-02-24T14:57:32.825Z,4.20
2019-02-24T15:00:38.058Z,3.87
2019-02-24T15:03:43.340Z,2.90
2019-02-24T15:06:48.522Z,4.27
2019-02-24T15:09:54.497Z,6.27
2019-02-24T15:12:59.612Z,3.70
2019-02-24T15:16:04.825Z,3.00
2019-02-24T15:19:09.925Z,3.23
2019-02-24T15:22:15.061Z,3.43
2019-02-24T15:25:20.419Z,3.30
2019-02-24T15:28:25.583Z,3.33
2019-02-24T15:31:30.863Z,3.47
2019-02-24T15:34:36.118Z,3.13
2019-02-24T15:37:41.376Z,2.97
2019-02-24T15:40:46.482Z,3.57
2019-02-24T15:43:51.734Z,4.37
2019-02-24T15:46:56.885Z,4.90
2019-02-24T15:50:02.505Z,2.73
2019-02-24T15:53:07.728Z,2.63
2019-02-24T15:56:13.132Z,3.77
2019-02-24T15:59:18.510Z,4.87
2019-02-24T16:02:23.662Z,3.40
2019-02-24T16:05:28.849Z,3.70
2019-02-24T16:08:34.900Z,3.50
2019-02-24T16:11:40.094Z,4.87
2019-02-24T16:14:45.224Z,4.93
2019-02-24T16:17:50.532Z,3.37
2019-02-24T16:20:55.706Z,7.23
2019-02-24T16:24:00.968Z,6.53
2019-02-24T16:27:06.251Z,4.97
2019-02-24T16:30:12.099Z,2.97
2019-02-24T16:33:17.204Z,3.63
2019-02-24T16:36:22.544Z,3.50
2019-02-24T16:39:27.700Z,5.07
2019-02-24T16:42:32.860Z,6.43
2019-02-24T16:45:38.099Z,7.00
2019-02-24T16:48:43.400Z,10.53
2019-02-24T16:51:48.562Z,19.70
2019-02-24T16:54:53.734Z,11.43
2019-02-24T16:57:58.950Z,9.47
2019-02-24T17:01:04.219Z,5.73
2019-02-24T17:04:09.504Z,8.30
2019-02-24T17:07:14.649Z,15.27
2019-02-24T17:10:20.004Z,7.23
2019-02-24T17:13:25.249Z,9.20
2019-02-24T17:16:30.389Z,11.23
2019-02-24T17:19:35.560Z,16.00
2019-02-24T17:22:40.695Z,19.13
2019-02-24T17:25:45.885Z,25.93
2019-02-24T17:28:52.197Z,31.70
2019-02-24T17:31:57.387Z,23.57
2019-02-24T17:35:02.546Z,10.30
2019-02-24T17:38:07.920Z,12.17
2019-02-24T17:41:13.023Z,11.47
2019-02-24T17:44:19.190Z,21.63
2019-02-24T17:47:24.394Z,26.37
2019-02-24T17:50:29.574Z,25.07
2019-02-24T17:53:34.884Z,22.60
2019-02-24T17:56:40.148Z,31.33
2019-02-24T17:59:45.466Z,27.83
2019-02-24T18:02:50.634Z,30.53
2019-02-24T18:05:57.011Z,32.93
2019-02-24T18:09:02.189Z,30.73
2019-02-24T18:12:08.964Z,30.57
2019-02-24T18:15:15.697Z,35.37
2019-02-24T18:18:21.060Z,29.80
2019-02-24T18:21:27.205Z,28.17
2019-02-24T18:24:32.397Z,35.50
2019-02-24T18:27:37.607Z,39.43
2019-02-24T18:30:44.413Z,37.03
2019-02-24T18:33:49.635Z,33.57
2019-02-24T18:36:54.831Z,26.67
2019-02-24T18:40:00.190Z,19.57
2019-02-24T18:43:05.415Z,31.07
2019-02-24T18:46:10.667Z,17.50
2019-02-24T18:49:15.837Z,16.47
2019-02-24T18:52:21.478Z,26.63
2019-02-24T18:55:36.554Z,28.73
2019-02-24T18:58:41.809Z,35.10
2019-02-24T19:01:47.838Z,14.70
2019-02-24T19:04:53.775Z,20.37
2019-02-24T19:07:59.890Z,44.57
2019-02-24T19:11:06.130Z,48.57
2019-02-24T19:14:11.388Z,54.10
2019-02-24T19:17:16.597Z,45.33
2019-02-24T19:20:21.831Z,45.80
2019-02-24T19:23:27.052Z,73.67
2019-02-24T19:26:32.288Z,43.90
2019-02-24T19:29:37.453Z,14.60
2019-02-24T19:32:42.686Z,11.63
2019-02-24T19:35:47.979Z,10.60
2019-02-24T19:38:55.019Z,12.80
2019-02-24T19:42:00.248Z,13.37
2019-02-24T19:45:05.781Z,18.27
2019-02-24T19:48:11.196Z,13.20
2019-02-24T19:51:16.399Z,18.17
2019-02-24T19:54:21.549Z,23.30
2019-02-24T19:57:26.839Z,15.70
2019-02-24T20:00:32.143Z,17.23
2019-02-24T20:03:37.524Z,11.97
2019-02-24T20:06:42.825Z,16.60
2019-02-24T20:09:47.992Z,14.83
2019-02-24T20:12:53.160Z,14.63
2019-02-24T20:15:58.666Z,14.27
2019-02-24T20:19:03.868Z,19.63
2019-02-24T20:22:09.060Z,28.20
2019-02-24T20:25:14.299Z,14.77
2019-02-24T20:28:19.429Z,15.20
2019-02-24T20:31:24.624Z,17.03
2019-02-24T20:34:29.793Z,16.17
2019-02-24T20:37:35.090Z,16.67
2019-02-24T20:40:40.402Z,16.03
2019-02-24T20:43:45.573Z,19.77
2019-02-24T20:46:50.981Z,28.17
2019-02-24T20:49:56.180Z,35.57
2019-02-24T20:53:01.404Z,38.93
2019-02-24T20:56:06.550Z,25.23
2019-02-24T20:59:11.763Z,21.00
2019-02-24T21:02:16.996Z,14.43
2019-02-24T21:05:22.283Z,15.80
2019-02-24T21:08:27.397Z,11.67
2019-02-24T21:11:32.595Z,12.50
2019-02-24T21:14:37.769Z,13.73
2019-02-24T21:17:43.027Z,20.17
2019-02-24T21:20:48.200Z,18.80
2019-02-24T21:23:53.471Z,12.80
2019-02-24T21:26:58.767Z,12.87
2019-02-24T21:30:04.441Z,19.80
2019-02-24T21:33:09.909Z,14.40
2019-02-24T21:36:15.369Z,21.23
2019-02-24T21:39:20.527Z,27.90
2019-02-24T21:42:25.829Z,24.30
2019-02-24T21:45:31.000Z,21.20
2019-02-24T21:48:36.255Z,18.07
2019-02-24T21:51:42.505Z,23.20
2019-02-24T21:54:47.758Z,20.10
2019-02-24T21:57:52.896Z,21.47
2019-02-24T22:00:58.169Z,21.57
2019-02-24T22:04:03.333Z,22.07
2019-02-24T22:07:09.462Z,21.73
2019-02-24T22:10:15.303Z,22.13
2019-02-24T22:13:20.537Z,19.77
2019-02-24T22:16:25.826Z,20.20
2019-02-24T22:19:31.237Z,23.80
2019-02-24T22:22:36.445Z,24.37
2019-02-24T22:25:41.611Z,20.67
2019-02-24T22:28:46.751Z,23.33
2019-02-24T22:31:52.247Z,28.37
2019-02-24T22:34:57.377Z,18.80
2019-02-24T22:38:02.547Z,18.70
2019-02-24T22:41:07.773Z,16.83
2019-02-24T22:44:12.936Z,20.17
2019-02-24T22:47:18.060Z,27.33
2019-02-24T22:50:23.296Z,19.63
2019-02-24T22:53:28.502Z,19.87
2019-02-24T22:56:33.635Z,21.10
2019-02-24T22:59:38.827Z,15.60
2019-02-24T23:02:44.011Z,18.20
2019-02-24T23:05:49.236Z,17.70
2019-02-24T23:08:54.764Z,15.07
2019-02-24T23:12:00.119Z,17.40
2019-02-24T23:15:05.575Z,21.27
2019-02-24T23:18:10.729Z,16.23
2019-02-24T23:21:15.905Z,16.87
2019-02-24T23:24:21.150Z,18.43
2019-02-24T23:27:26.351Z,18.10
2019-02-24T23:30:31.459Z,14.67
2019-02-24T23:33:36.652Z,18.73
2019-02-24T23:36:41.767Z,24.00
2019-02-24T23:39:46.963Z,24.53
2019-02-24T23:42:52.129Z,25.40
2019-02-24T23:45:57.312Z,18.83
2019-02-24T23:49:02.468Z,23.80
2019-02-24T23:52:07.860Z,20.37
2019-02-24T23:55:13.058Z,20.60
2019-02-24T23:58:18.320Z,18.80
